SCPQ

Details ICAO SCPQ
Name Mocopulli
Region Chile
Timezone America/Santiago (UTC-3.0)
Plans Departing 2
Arriving 4
Stats Elevation 567 ft / 173 m (AMSL)
Location -42.340278° -73.715833°
Runways 1
Magnetic Variation 9.518° E
Sunrise 2017-12-15 09:13:47 UTC / 2017-12-15 06:13:47 Local
Sunset 2017-12-16 00:29:13 UTC / 2017-12-15 21:29:13 Local
Advertisement - Login to hide

Runways

ID Width Length Bearing (true) Bearing (mag) Surface Threshold Offset Overrun Length
17 148 ft / 45 m 6,568 ft / 2,002 m 184.00° 174.48° Asphalt 0 ft / 0 m 0 ft / 0 m
35 148 ft / 45 m 6,568 ft / 2,002 m 4.00° 354.48° Asphalt 0 ft / 0 m 0 ft / 0 m

Approach Navaids

Runway Type Ident Frequency Range Bearing (true) Bearing (mag) Slope Elevation
17 Localiser IMCI 109.90 MHz 18 nm / 33 km 183.99° 174.47° - 492 ft / 150 m (AMSL)
17 Glidescope IMCI 109.90 MHz 50 nm / 93 km 184.00° 174.48° 3.00° 492 ft / 150 m (AMSL)

Map

Weather


0- 5 10 15 20 25 30 35+ Temperature / ° C

Clouds and Precipitation
Forecast for 2017-12-16 00:00 UTC. Updated an hour ago

Ground ~20,000 ft ~40,000 ft Winds

METAR

SCPQ 160000Z AUTO 35010KT 9999 -RA BKN007 BKN015 14/14 Q1004

TAF

Not found

Frequencies

Ground 121.60 MHz GND
Tower 118.40 MHz TWR
Warning: Do not use this data for real-world aviation or navigation. No guarantee of current accuracy is given.